Aviation Digital Data Service (ADDS)

Output produced by METARs form (0605 UTC 16 February 2019)
found at http://www.aviationweather.gov/metar/data/
 
METAR text: YBCG 160600Z AUTO 17013KT 9999 // SCT029 BKN038 BKN061 26/17 Q1015
Conditions at: YBCG (COOLANGATTA AWS , AU) observed 0600 UTC 16 February 2019
Temperature: 26.0°C (79°F)
Dewpoint: 17.0°C (63°F) [RH = 58%]
Pressure (altimeter): 29.97 inches Hg (1015.0 mb)
Winds: from the S (170 degrees) at 15 MPH (13 knots; 6.7 m/s)
Visibility: 6 or more miles (10+ km)
Ceiling: 3800 feet AGL
Clouds: scattered clouds at 2900 feet AGL
broken clouds at 3800 feet AGL
broken clouds at 6100 feet AGL
Weather: no significant weather observed at this time

METAR text: YBCG 160530Z AUTO 16012KT 9999 // SCT048 OVC058 26/17 Q1015
Conditions at: YBCG (COOLANGATTA AWS , AU) observed 0530 UTC 16 February 2019
Temperature: 26.0°C (79°F)
Dewpoint: 17.0°C (63°F) [RH = 58%]
Pressure (altimeter): 29.97 inches Hg (1015.0 mb)
Winds: from the SSE (160 degrees) at 14 MPH (12 knots; 6.2 m/s)
Visibility: 6 or more miles (10+ km)
Ceiling: 5800 feet AGL
Clouds: scattered clouds at 4800 feet AGL
overcast cloud deck at 5800 feet AGL
Weather: no significant weather observed at this time

METAR text: YBCG 160500Z AUTO 16012KT 9999 // SCT049 OVC063 OVC072 26/18 Q1015
Conditions at: YBCG (COOLANGATTA AWS , AU) observed 0500 UTC 16 February 2019
Temperature: 26.0°C (79°F)
Dewpoint: 18.0°C (64°F) [RH = 61%]
Pressure (altimeter): 29.97 inches Hg (1015.0 mb)
Winds: from the SSE (160 degrees) at 14 MPH (12 knots; 6.2 m/s)
Visibility: 6 or more miles (10+ km)
Ceiling: 6300 feet AGL
Clouds: scattered clouds at 4900 feet AGL
overcast cloud deck at 6300 feet AGL
overcast cloud deck at 7200 feet AGL
Weather: no significant weather observed at this time

METAR text: YBCG 160435Z AUTO 16017G27KT 9999 // SCT035 BKN048 OVC074 26/18 Q1016
Conditions at: YBCG (COOLANGATTA AWS , AU) observed 0435 UTC 16 February 2019
Temperature: 26.0°C (79°F)
Dewpoint: 18.0°C (64°F) [RH = 61%]
Pressure (altimeter): 30.00 inches Hg (1016.0 mb)
Winds: from the SSE (160 degrees) at 20 MPH (17 knots; 8.7 m/s)
gusting to 31 MPH (27 knots; 13.9 m/s)
Visibility: 6 or more miles (10+ km)
Ceiling: 4800 feet AGL
Clouds: scattered clouds at 3500 feet AGL
broken clouds at 4800 feet AGL
overcast cloud deck at 7400 feet AGL
Weather: no significant weather observed at this time

METAR text: YBCG 160400Z AUTO 15015KT 9999 -SHRA SCT029 SCT041 BKN047 25/18 Q1016
Conditions at: YBCG (COOLANGATTA AWS , AU) observed 0400 UTC 16 February 2019
Temperature: 25.0°C (77°F)
Dewpoint: 18.0°C (64°F) [RH = 65%]
Pressure (altimeter): 30.00 inches Hg (1016.0 mb)
Winds: from the SSE (150 degrees) at 17 MPH (15 knots; 7.7 m/s)
Visibility: 6 or more miles (10+ km)
Ceiling: 4700 feet AGL
Clouds: scattered clouds at 2900 feet AGL
scattered clouds at 4100 feet AGL
broken clouds at 4700 feet AGL
Weather: -SHRA  (light rain showers)

METAR text: YBCG 160330Z AUTO 13016KT 9999 // SCT027 SCT042 BKN052 27/17 Q1016
Conditions at: YBCG (COOLANGATTA AWS , AU) observed 0330 UTC 16 February 2019
Temperature: 27.0°C (81°F)
Dewpoint: 17.0°C (63°F) [RH = 54%]
Pressure (altimeter): 30.00 inches Hg (1016.0 mb)
Winds: from the SE (130 degrees) at 18 MPH (16 knots; 8.2 m/s)
Visibility: 6 or more miles (10+ km)
Ceiling: 5200 feet AGL
Clouds: scattered clouds at 2700 feet AGL
scattered clouds at 4200 feet AGL
broken clouds at 5200 feet AGL
Weather: no significant weather observed at this time

METAR text: YBCG 160300Z AUTO 15017KT 9999 // SCT033 BKN040 BKN053 27/18 Q1016
Conditions at: YBCG (COOLANGATTA AWS , AU) observed 0300 UTC 16 February 2019
Temperature: 27.0°C (81°F)
Dewpoint: 18.0°C (64°F) [RH = 58%]
Pressure (altimeter): 30.00 inches Hg (1016.0 mb)
Winds: from the SSE (150 degrees) at 20 MPH (17 knots; 8.7 m/s)
Visibility: 6 or more miles (10+ km)
Ceiling: 4000 feet AGL
Clouds: scattered clouds at 3300 feet AGL
broken clouds at 4000 feet AGL
broken clouds at 5300 feet AGL
Weather: no significant weather observed at this time

METAR text: YBCG 160230Z AUTO 13012KT 9999 // SCT029 SCT038 SCT045 27/19 Q1017
Conditions at: YBCG (COOLANGATTA AWS , AU) observed 0230 UTC 16 February 2019
Temperature: 27.0°C (81°F)
Dewpoint: 19.0°C (66°F) [RH = 62%]
Pressure (altimeter): 30.03 inches Hg (1017.0 mb)
Winds: from the SE (130 degrees) at 14 MPH (12 knots; 6.2 m/s)
Visibility: 6 or more miles (10+ km)
Ceiling: at least 12,000 feet AGL
Clouds: scattered clouds at 2900 feet AGL
scattered clouds at 3800 feet AGL
scattered clouds at 4500 feet AGL
Weather: no significant weather observed at this time

METAR text: YBCG 160200Z AUTO 13019KT 9999 // SCT030 BKN044 OVC049 26/17 Q1017
Conditions at: YBCG (COOLANGATTA AWS , AU) observed 0200 UTC 16 February 2019
Temperature: 26.0°C (79°F)
Dewpoint: 17.0°C (63°F) [RH = 58%]
Pressure (altimeter): 30.03 inches Hg (1017.0 mb)
Winds: from the SE (130 degrees) at 22 MPH (19 knots; 9.8 m/s)
Visibility: 6 or more miles (10+ km)
Ceiling: 4400 feet AGL
Clouds: scattered clouds at 3000 feet AGL
broken clouds at 4400 feet AGL
overcast cloud deck at 4900 feet AGL
Weather: no significant weather observed at this time

METAR text: YBCG 160130Z AUTO 14017KT 9999 // SCT027 BKN030 BKN039 28/18 Q1017
Conditions at: YBCG (COOLANGATTA AWS , AU) observed 0130 UTC 16 February 2019
Temperature: 28.0°C (82°F)
Dewpoint: 18.0°C (64°F) [RH = 55%]
Pressure (altimeter): 30.03 inches Hg (1017.0 mb)
Winds: from the SE (140 degrees) at 20 MPH (17 knots; 8.7 m/s)
Visibility: 6 or more miles (10+ km)
Ceiling: 3000 feet AGL
Clouds: scattered clouds at 2700 feet AGL
broken clouds at 3000 feet AGL
broken clouds at 3900 feet AGL
Weather: no significant weather observed at this time

METAR text: YBCG 160100Z AUTO 14015KT 9999 // SCT035 SCT040 BKN047 27/19 Q1018
Conditions at: YBCG (COOLANGATTA AWS , AU) observed 0100 UTC 16 February 2019
Temperature: 27.0°C (81°F)
Dewpoint: 19.0°C (66°F) [RH = 62%]
Pressure (altimeter): 30.06 inches Hg (1018.0 mb)
Winds: from the SE (140 degrees) at 17 MPH (15 knots; 7.7 m/s)
Visibility: 6 or more miles (10+ km)
Ceiling: 4700 feet AGL
Clouds: scattered clouds at 3500 feet AGL
scattered clouds at 4000 feet AGL
broken clouds at 4700 feet AGL
Weather: no significant weather observed at this time

METAR text: YBCG 160030Z AUTO 18009KT 9999 // SCT026 SCT039 SCT052 25/21 Q1018
Conditions at: YBCG (COOLANGATTA AWS , AU) observed 0030 UTC 16 February 2019
Temperature: 25.0°C (77°F)
Dewpoint: 21.0°C (70°F) [RH = 79%]
Pressure (altimeter): 30.06 inches Hg (1018.0 mb)
Winds: from the S (180 degrees) at 10 MPH (9 knots; 4.6 m/s)
Visibility: 6 or more miles (10+ km)
Ceiling: at least 12,000 feet AGL
Clouds: scattered clouds at 2600 feet AGL
scattered clouds at 3900 feet AGL
scattered clouds at 5200 feet AGL
Weather: no significant weather observed at this time

METAR text: YBCG 160000Z AUTO 14014KT 9999 // SCT043 BKN051 BKN065 25/18 Q1018
Conditions at: YBCG (COOLANGATTA AWS , AU) observed 0000 UTC 16 February 2019
Temperature: 25.0°C (77°F)
Dewpoint: 18.0°C (64°F) [RH = 65%]
Pressure (altimeter): 30.06 inches Hg (1018.0 mb)
Winds: from the SE (140 degrees) at 16 MPH (14 knots; 7.2 m/s)
Visibility: 6 or more miles (10+ km)
Ceiling: 5100 feet AGL
Clouds: scattered clouds at 4300 feet AGL
broken clouds at 5100 feet AGL
broken clouds at 6500 feet AGL
Weather: no significant weather observed at this time

METAR text: YBCG 152330Z AUTO 19010KT 9999 // SCT045 SCT051 BKN067 26/18 Q1018
Conditions at: YBCG (COOLANGATTA AWS , AU) observed 2330 UTC 15 February 2019
Temperature: 26.0°C (79°F)
Dewpoint: 18.0°C (64°F) [RH = 61%]
Pressure (altimeter): 30.06 inches Hg (1018.0 mb)
Winds: from the S (190 degrees) at 12 MPH (10 knots; 5.1 m/s)
Visibility: 6 or more miles (10+ km)
Ceiling: 6700 feet AGL
Clouds: scattered clouds at 4500 feet AGL
scattered clouds at 5100 feet AGL
broken clouds at 6700 feet AGL
Weather: no significant weather observed at this time

METAR text: YBCG 152300Z AUTO 18012KT 9999 // SCT040 SCT055 SCT067 25/18 Q1018
Conditions at: YBCG (COOLANGATTA AWS , AU) observed 2300 UTC 15 February 2019
Temperature: 25.0°C (77°F)
Dewpoint: 18.0°C (64°F) [RH = 65%]
Pressure (altimeter): 30.06 inches Hg (1018.0 mb)
Winds: from the S (180 degrees) at 14 MPH (12 knots; 6.2 m/s)
Visibility: 6 or more miles (10+ km)
Ceiling: at least 12,000 feet AGL
Clouds: scattered clouds at 4000 feet AGL
scattered clouds at 5500 feet AGL
scattered clouds at 6700 feet AGL
Weather: no significant weather observed at this time

METAR text: YBCG 152230Z AUTO 19008KT 9999 // SCT051 BKN063 24/18 Q1018
Conditions at: YBCG (COOLANGATTA AWS , AU) observed 2230 UTC 15 February 2019
Temperature: 24.0°C (75°F)
Dewpoint: 18.0°C (64°F) [RH = 69%]
Pressure (altimeter): 30.06 inches Hg (1018.0 mb)
Winds: from the S (190 degrees) at 9 MPH (8 knots; 4.1 m/s)
Visibility: 6 or more miles (10+ km)
Ceiling: 6300 feet AGL
Clouds: scattered clouds at 5100 feet AGL
broken clouds at 6300 feet AGL
Weather: no significant weather observed at this time

METAR text: YBCG 152200Z AUTO 20007KT 9999 // SCT041 SCT051 OVC066 23/18 Q1018
Conditions at: YBCG (COOLANGATTA AWS , AU) observed 2200 UTC 15 February 2019
Temperature: 23.0°C (73°F)
Dewpoint: 18.0°C (64°F) [RH = 73%]
Pressure (altimeter): 30.06 inches Hg (1018.0 mb)
Winds: from the SSW (200 degrees) at 8 MPH (7 knots; 3.6 m/s)
Visibility: 6 or more miles (10+ km)
Ceiling: 6600 feet AGL
Clouds: scattered clouds at 4100 feet AGL
scattered clouds at 5100 feet AGL
overcast cloud deck at 6600 feet AGL
Weather: no significant weather observed at this time

METAR text: YBCG 152130Z AUTO 20008KT 9999 -SHRA SCT035 BKN043 BKN050 22/18 Q1018
Conditions at: YBCG (COOLANGATTA AWS , AU) observed 2130 UTC 15 February 2019
Temperature: 22.0°C (72°F)
Dewpoint: 18.0°C (64°F) [RH = 78%]
Pressure (altimeter): 30.06 inches Hg (1018.0 mb)
Winds: from the SSW (200 degrees) at 9 MPH (8 knots; 4.1 m/s)
Visibility: 6 or more miles (10+ km)
Ceiling: 4300 feet AGL
Clouds: scattered clouds at 3500 feet AGL
broken clouds at 4300 feet AGL
broken clouds at 5000 feet AGL
Weather: -SHRA  (light rain showers)

METAR text: YBCG 152100Z AUTO 20008KT 9999 // SCT038 SCT043 BKN054 22/18 Q1018
Conditions at: YBCG (COOLANGATTA AWS , AU) observed 2100 UTC 15 February 2019
Temperature: 22.0°C (72°F)
Dewpoint: 18.0°C (64°F) [RH = 78%]
Pressure (altimeter): 30.06 inches Hg (1018.0 mb)
Winds: from the SSW (200 degrees) at 9 MPH (8 knots; 4.1 m/s)
Visibility: 6 or more miles (10+ km)
Ceiling: 5400 feet AGL
Clouds: scattered clouds at 3800 feet AGL
scattered clouds at 4300 feet AGL
broken clouds at 5400 feet AGL
Weather: no significant weather observed at this time

METAR text: YBCG 152030Z AUTO 21007KT 9999 // SCT041 SCT049 OVC060 22/17 Q1017
Conditions at: YBCG (COOLANGATTA AWS , AU) observed 2030 UTC 15 February 2019
Temperature: 22.0°C (72°F)
Dewpoint: 17.0°C (63°F) [RH = 73%]
Pressure (altimeter): 30.03 inches Hg (1017.0 mb)
Winds: from the SSW (210 degrees) at 8 MPH (7 knots; 3.6 m/s)
Visibility: 6 or more miles (10+ km)
Ceiling: 6000 feet AGL
Clouds: scattered clouds at 4100 feet AGL
scattered clouds at 4900 feet AGL
overcast cloud deck at 6000 feet AGL
Weather: no significant weather observed at this time

METAR text: YBCG 152000Z AUTO 21007KT 9999 // BKN057 21/17 Q1017 RF00.0/000.4
Conditions at: YBCG (COOLANGATTA AWS , AU) observed 2000 UTC 15 February 2019
Temperature: 21.0°C (70°F)
Dewpoint: 17.0°C (63°F) [RH = 78%]
Pressure (altimeter): 30.03 inches Hg (1017.0 mb)
Winds: from the SSW (210 degrees) at 8 MPH (7 knots; 3.6 m/s)
Visibility: 6 or more miles (10+ km)
Ceiling: 5700 feet AGL
Clouds: broken clouds at 5700 feet AGL
Weather: no significant weather observed at this time

METAR text: YBCG 151930Z AUTO 20009KT 9999 // OVC045 21/17 Q1017 RF00.0/000.4
Conditions at: YBCG (COOLANGATTA AWS , AU) observed 1930 UTC 15 February 2019
Temperature: 21.0°C (70°F)
Dewpoint: 17.0°C (63°F) [RH = 78%]
Pressure (altimeter): 30.03 inches Hg (1017.0 mb)
Winds: from the SSW (200 degrees) at 10 MPH (9 knots; 4.6 m/s)
Visibility: 6 or more miles (10+ km)
Ceiling: 4500 feet AGL
Clouds: overcast cloud deck at 4500 feet AGL
Weather: no significant weather observed at this time

METAR text: YBCG 151900Z AUTO 18007KT 9999 // SCT031 SCT047 BKN063 21/17 Q1017
Conditions at: YBCG (COOLANGATTA AWS , AU) observed 1900 UTC 15 February 2019
Temperature: 21.0°C (70°F)
Dewpoint: 17.0°C (63°F) [RH = 78%]
Pressure (altimeter): 30.03 inches Hg (1017.0 mb)
Winds: from the S (180 degrees) at 8 MPH (7 knots; 3.6 m/s)
Visibility: 6 or more miles (10+ km)
Ceiling: 6300 feet AGL
Clouds: scattered clouds at 3100 feet AGL
scattered clouds at 4700 feet AGL
broken clouds at 6300 feet AGL
Weather: no significant weather observed at this time

METAR text: YBCG 151830Z AUTO 19008KT 9999 -SHRA SCT031 SCT039 BKN047 21/17 Q1017
Conditions at: YBCG (COOLANGATTA AWS , AU) observed 1830 UTC 15 February 2019
Temperature: 21.0°C (70°F)
Dewpoint: 17.0°C (63°F) [RH = 78%]
Pressure (altimeter): 30.03 inches Hg (1017.0 mb)
Winds: from the S (190 degrees) at 9 MPH (8 knots; 4.1 m/s)
Visibility: 6 or more miles (10+ km)
Ceiling: 4700 feet AGL
Clouds: scattered clouds at 3100 feet AGL
scattered clouds at 3900 feet AGL
broken clouds at 4700 feet AGL
Weather: -SHRA  (light rain showers)

METAR text: YBCG 151800Z AUTO 19010KT 9999 -SHRA SCT038 BKN047 BKN054 21/17 Q1016
Conditions at: YBCG (COOLANGATTA AWS , AU) observed 1800 UTC 15 February 2019
Temperature: 21.0°C (70°F)
Dewpoint: 17.0°C (63°F) [RH = 78%]
Pressure (altimeter): 30.00 inches Hg (1016.0 mb)
Winds: from the S (190 degrees) at 12 MPH (10 knots; 5.1 m/s)
Visibility: 6 or more miles (10+ km)
Ceiling: 4700 feet AGL
Clouds: scattered clouds at 3800 feet AGL
broken clouds at 4700 feet AGL
broken clouds at 5400 feet AGL
Weather: -SHRA  (light rain showers)

METAR text: YBCG 151730Z AUTO 19009KT 9999 -SHRA BKN038 OVC060 22/16 Q1017
Conditions at: YBCG (COOLANGATTA AWS , AU) observed 1730 UTC 15 February 2019
Temperature: 22.0°C (72°F)
Dewpoint: 16.0°C (61°F) [RH = 69%]
Pressure (altimeter): 30.03 inches Hg (1017.0 mb)
Winds: from the S (190 degrees) at 10 MPH (9 knots; 4.6 m/s)
Visibility: 6 or more miles (10+ km)
Ceiling: 3800 feet AGL
Clouds: broken clouds at 3800 feet AGL
overcast cloud deck at 6000 feet AGL
Weather: -SHRA  (light rain showers)

METAR text: YBCG 151700Z AUTO 19010KT 9999 // BKN044 BKN055 23/16 Q1017
Conditions at: YBCG (COOLANGATTA AWS , AU) observed 1700 UTC 15 February 2019
Temperature: 23.0°C (73°F)
Dewpoint: 16.0°C (61°F) [RH = 65%]
Pressure (altimeter): 30.03 inches Hg (1017.0 mb)
Winds: from the S (190 degrees) at 12 MPH (10 knots; 5.1 m/s)
Visibility: 6 or more miles (10+ km)
Ceiling: 4400 feet AGL
Clouds: broken clouds at 4400 feet AGL
broken clouds at 5500 feet AGL
Weather: no significant weather observed at this time

METAR text: YBCG 151630Z AUTO 20009KT 9999 // SCT050 SCT066 22/16 Q1017
Conditions at: YBCG (COOLANGATTA AWS , AU) observed 1630 UTC 15 February 2019
Temperature: 22.0°C (72°F)
Dewpoint: 16.0°C (61°F) [RH = 69%]
Pressure (altimeter): 30.03 inches Hg (1017.0 mb)
Winds: from the SSW (200 degrees) at 10 MPH (9 knots; 4.6 m/s)
Visibility: 6 or more miles (10+ km)
Ceiling: at least 12,000 feet AGL
Clouds: scattered clouds at 5000 feet AGL
scattered clouds at 6600 feet AGL
Weather: no significant weather observed at this time

METAR text: YBCG 151600Z AUTO 20008KT 9999 // SCT050 OVC062 22/16 Q1017
Conditions at: YBCG (COOLANGATTA AWS , AU) observed 1600 UTC 15 February 2019
Temperature: 22.0°C (72°F)
Dewpoint: 16.0°C (61°F) [RH = 69%]
Pressure (altimeter): 30.03 inches Hg (1017.0 mb)
Winds: from the SSW (200 degrees) at 9 MPH (8 knots; 4.1 m/s)
Visibility: 6 or more miles (10+ km)
Ceiling: 6200 feet AGL
Clouds: scattered clouds at 5000 feet AGL
overcast cloud deck at 6200 feet AGL
Weather: no significant weather observed at this time

METAR text: YBCG 151530Z AUTO 19010KT 9999 // BKN044 BKN051 OVC067 21/17 Q1017
Conditions at: YBCG (COOLANGATTA AWS , AU) observed 1530 UTC 15 February 2019
Temperature: 21.0°C (70°F)
Dewpoint: 17.0°C (63°F) [RH = 78%]
Pressure (altimeter): 30.03 inches Hg (1017.0 mb)
Winds: from the S (190 degrees) at 12 MPH (10 knots; 5.1 m/s)
Visibility: 6 or more miles (10+ km)
Ceiling: 4400 feet AGL
Clouds: broken clouds at 4400 feet AGL
broken clouds at 5100 feet AGL
overcast cloud deck at 6700 feet AGL
Weather: no significant weather observed at this time

METAR text: YBCG 151500Z AUTO 19007KT //// // SCT032 BKN042 OVC047 21/19 Q1018
Conditions at: YBCG (COOLANGATTA AWS , AU) observed 1500 UTC 15 February 2019
Temperature: 21.0°C (70°F)
Dewpoint: 19.0°C (66°F) [RH = 88%]
Pressure (altimeter): 30.06 inches Hg (1018.0 mb)
Winds: from the S (190 degrees) at 8 MPH (7 knots; 3.6 m/s)
Visibility: missing
Ceiling: 4200 feet AGL
Clouds: scattered clouds at 3200 feet AGL
broken clouds at 4200 feet AGL
overcast cloud deck at 4700 feet AGL
Weather: no significant weather observed at this time

METAR text: YBCG 151430Z AUTO 16014G24KT 9999 DZ BKN039 BKN059 BKN068 22/17 Q1018
Conditions at: YBCG (COOLANGATTA AWS , AU) observed 1430 UTC 15 February 2019
Temperature: 22.0°C (72°F)
Dewpoint: 17.0°C (63°F) [RH = 73%]
Pressure (altimeter): 30.06 inches Hg (1018.0 mb)
Winds: from the SSE (160 degrees) at 16 MPH (14 knots; 7.2 m/s)
gusting to 28 MPH (24 knots; 12.3 m/s)
Visibility: 6 or more miles (10+ km)
Ceiling: 3900 feet AGL
Clouds: broken clouds at 3900 feet AGL
broken clouds at 5900 feet AGL
broken clouds at 6800 feet AGL
Weather: DZ  (moderate drizzle)

METAR text: YBCG 151400Z AUTO 18010KT 9999 // BKN045 OVC068 23/16 Q1018
Conditions at: YBCG (COOLANGATTA AWS , AU) observed 1400 UTC 15 February 2019
Temperature: 23.0°C (73°F)
Dewpoint: 16.0°C (61°F) [RH = 65%]
Pressure (altimeter): 30.06 inches Hg (1018.0 mb)
Winds: from the S (180 degrees) at 12 MPH (10 knots; 5.1 m/s)
Visibility: 6 or more miles (10+ km)
Ceiling: 4500 feet AGL
Clouds: broken clouds at 4500 feet AGL
overcast cloud deck at 6800 feet AGL
Weather: no significant weather observed at this time

METAR text: YBCG 151330Z AUTO 18010KT 9999 // SCT046 BKN068 24/15 Q1018
Conditions at: YBCG (COOLANGATTA AWS , AU) observed 1330 UTC 15 February 2019
Temperature: 24.0°C (75°F)
Dewpoint: 15.0°C (59°F) [RH = 57%]
Pressure (altimeter): 30.06 inches Hg (1018.0 mb)
Winds: from the S (180 degrees) at 12 MPH (10 knots; 5.1 m/s)
Visibility: 6 or more miles (10+ km)
Ceiling: 6800 feet AGL
Clouds: scattered clouds at 4600 feet AGL
broken clouds at 6800 feet AGL
Weather: no significant weather observed at this time

METAR text: YBCG 151300Z AUTO 18009KT 9999 // SCT044 SCT051 OVC068 24/16 Q1019
Conditions at: YBCG (COOLANGATTA AWS , AU) observed 1300 UTC 15 February 2019
Temperature: 24.0°C (75°F)
Dewpoint: 16.0°C (61°F) [RH = 61%]
Pressure (altimeter): 30.09 inches Hg (1019.0 mb)
Winds: from the S (180 degrees) at 10 MPH (9 knots; 4.6 m/s)
Visibility: 6 or more miles (10+ km)
Ceiling: 6800 feet AGL
Clouds: scattered clouds at 4400 feet AGL
scattered clouds at 5100 feet AGL
overcast cloud deck at 6800 feet AGL
Weather: no significant weather observed at this time

METAR text: YBCG 151230Z AUTO 18010KT 9999 // BKN042 BKN051 OVC066 24/16 Q1019
Conditions at: YBCG (COOLANGATTA AWS , AU) observed 1230 UTC 15 February 2019
Temperature: 24.0°C (75°F)
Dewpoint: 16.0°C (61°F) [RH = 61%]
Pressure (altimeter): 30.09 inches Hg (1019.0 mb)
Winds: from the S (180 degrees) at 12 MPH (10 knots; 5.1 m/s)
Visibility: 6 or more miles (10+ km)
Ceiling: 4200 feet AGL
Clouds: broken clouds at 4200 feet AGL
broken clouds at 5100 feet AGL
overcast cloud deck at 6600 feet AGL
Weather: no significant weather observed at this time

METAR text: YBCG 151200Z AUTO 19010KT 9999 // SCT044 SCT062 23/16 Q1019
Conditions at: YBCG (COOLANGATTA AWS , AU) observed 1200 UTC 15 February 2019
Temperature: 23.0°C (73°F)
Dewpoint: 16.0°C (61°F) [RH = 65%]
Pressure (altimeter): 30.09 inches Hg (1019.0 mb)
Winds: from the S (190 degrees) at 12 MPH (10 knots; 5.1 m/s)
Visibility: 6 or more miles (10+ km)
Ceiling: at least 12,000 feet AGL
Clouds: scattered clouds at 4400 feet AGL
scattered clouds at 6200 feet AGL
Weather: no significant weather observed at this time

METAR text: YBCG 151130Z AUTO 19011KT 9999 -SHRA SCT040 SCT045 BKN054 24/17 Q1019
Conditions at: YBCG (COOLANGATTA AWS , AU) observed 1130 UTC 15 February 2019
Temperature: 24.0°C (75°F)
Dewpoint: 17.0°C (63°F) [RH = 65%]
Pressure (altimeter): 30.09 inches Hg (1019.0 mb)
Winds: from the S (190 degrees) at 13 MPH (11 knots; 5.7 m/s)
Visibility: 6 or more miles (10+ km)
Ceiling: 5400 feet AGL
Clouds: scattered clouds at 4000 feet AGL
scattered clouds at 4500 feet AGL
broken clouds at 5400 feet AGL
Weather: -SHRA  (light rain showers)

METAR text: YBCG 151100Z AUTO 18010KT 9999 -SHRA SCT038 BKN048 OVC061 24/17 Q1019
Conditions at: YBCG (COOLANGATTA AWS , AU) observed 1100 UTC 15 February 2019
Temperature: 24.0°C (75°F)
Dewpoint: 17.0°C (63°F) [RH = 65%]
Pressure (altimeter): 30.09 inches Hg (1019.0 mb)
Winds: from the S (180 degrees) at 12 MPH (10 knots; 5.1 m/s)
Visibility: 6 or more miles (10+ km)
Ceiling: 4800 feet AGL
Clouds: scattered clouds at 3800 feet AGL
broken clouds at 4800 feet AGL
overcast cloud deck at 6100 feet AGL
Weather: -SHRA  (light rain showers)

METAR text: YBCG 151030Z AUTO 19012KT 9999 // SCT037 BKN050 BKN070 24/17 Q1019
Conditions at: YBCG (COOLANGATTA AWS , AU) observed 1030 UTC 15 February 2019
Temperature: 24.0°C (75°F)
Dewpoint: 17.0°C (63°F) [RH = 65%]
Pressure (altimeter): 30.09 inches Hg (1019.0 mb)
Winds: from the S (190 degrees) at 14 MPH (12 knots; 6.2 m/s)
Visibility: 6 or more miles (10+ km)
Ceiling: 5000 feet AGL
Clouds: scattered clouds at 3700 feet AGL
broken clouds at 5000 feet AGL
broken clouds at 7000 feet AGL
Weather: no significant weather observed at this time

METAR text: YBCG 151000Z AUTO 19010KT 9999 // SCT037 24/16 Q1019 RF00.0/000.0
Conditions at: YBCG (COOLANGATTA AWS , AU) observed 1000 UTC 15 February 2019
Temperature: 24.0°C (75°F)
Dewpoint: 16.0°C (61°F) [RH = 61%]
Pressure (altimeter): 30.09 inches Hg (1019.0 mb)
Winds: from the S (190 degrees) at 12 MPH (10 knots; 5.1 m/s)
Visibility: 6 or more miles (10+ km)
Ceiling: at least 12,000 feet AGL
Clouds: scattered clouds at 3700 feet AGL
Weather: no significant weather observed at this time

METAR text: YBCG 150930Z AUTO 19010KT 9999 // SCT035 BKN042 BKN051 24/16 Q1019
Conditions at: YBCG (COOLANGATTA AWS , AU) observed 0930 UTC 15 February 2019
Temperature: 24.0°C (75°F)
Dewpoint: 16.0°C (61°F) [RH = 61%]
Pressure (altimeter): 30.09 inches Hg (1019.0 mb)
Winds: from the S (190 degrees) at 12 MPH (10 knots; 5.1 m/s)
Visibility: 6 or more miles (10+ km)
Ceiling: 4200 feet AGL
Clouds: scattered clouds at 3500 feet AGL
broken clouds at 4200 feet AGL
broken clouds at 5100 feet AGL
Weather: no significant weather observed at this time

METAR text: YBCG 150900Z AUTO 19011KT 9999 // SCT049 SCT057 BKN065 24/15 Q1018
Conditions at: YBCG (COOLANGATTA AWS , AU) observed 0900 UTC 15 February 2019
Temperature: 24.0°C (75°F)
Dewpoint: 15.0°C (59°F) [RH = 57%]
Pressure (altimeter): 30.06 inches Hg (1018.0 mb)
Winds: from the S (190 degrees) at 13 MPH (11 knots; 5.7 m/s)
Visibility: 6 or more miles (10+ km)
Ceiling: 6500 feet AGL
Clouds: scattered clouds at 4900 feet AGL
scattered clouds at 5700 feet AGL
broken clouds at 6500 feet AGL
Weather: no significant weather observed at this time

METAR text: YBCG 150830Z AUTO 18011KT 9999 // SCT063 24/15 Q1018 RF00.0/000.0
Conditions at: YBCG (COOLANGATTA AWS , AU) observed 0830 UTC 15 February 2019
Temperature: 24.0°C (75°F)
Dewpoint: 15.0°C (59°F) [RH = 57%]
Pressure (altimeter): 30.06 inches Hg (1018.0 mb)
Winds: from the S (180 degrees) at 13 MPH (11 knots; 5.7 m/s)
Visibility: 6 or more miles (10+ km)
Ceiling: at least 12,000 feet AGL
Clouds: scattered clouds at 6300 feet AGL
Weather: no significant weather observed at this time

METAR text: YBCG 150800Z AUTO 17013G23KT 9999 // NCD 25/15 Q1018 RF00.0/000.0
Conditions at: YBCG (COOLANGATTA AWS , AU) observed 0800 UTC 15 February 2019
Temperature: 25.0°C (77°F)
Dewpoint: 15.0°C (59°F) [RH = 54%]
Pressure (altimeter): 30.06 inches Hg (1018.0 mb)
Winds: from the S (170 degrees) at 15 MPH (13 knots; 6.7 m/s)
gusting to 26 MPH (23 knots; 11.8 m/s)
Visibility: 6 or more miles (10+ km)
Ceiling: at least 12,000 feet AGL
Clouds: sky clear below 12,000 feet AGL
Weather: no significant weather observed at this time

METAR text: YBCG 150750Z AUTO 17015G25KT 9999 // NCD 25/15 Q1018
Conditions at: YBCG (COOLANGATTA AWS , AU) observed 0750 UTC 15 February 2019
Temperature: 25.0°C (77°F)
Dewpoint: 15.0°C (59°F) [RH = 54%]
Pressure (altimeter): 30.06 inches Hg (1018.0 mb)
Winds: from the S (170 degrees) at 17 MPH (15 knots; 7.7 m/s)
gusting to 29 MPH (25 knots; 12.9 m/s)
Visibility: 6 or more miles (10+ km)
Ceiling: at least 12,000 feet AGL
Clouds: sky clear below 12,000 feet AGL
Weather: no significant weather observed at this time

METAR text: YBCG 150730Z AUTO 16016KT 9999 // NCD 26/16 Q1017 RF00.0/000.0
Conditions at: YBCG (COOLANGATTA AWS , AU) observed 0730 UTC 15 February 2019
Temperature: 26.0°C (79°F)
Dewpoint: 16.0°C (61°F) [RH = 54%]
Pressure (altimeter): 30.03 inches Hg (1017.0 mb)
Winds: from the SSE (160 degrees) at 18 MPH (16 knots; 8.2 m/s)
Visibility: 6 or more miles (10+ km)
Ceiling: at least 12,000 feet AGL
Clouds: sky clear below 12,000 feet AGL
Weather: no significant weather observed at this time

METAR text: YBCG 150709Z AUTO 17017G27KT 9999 // SCT067 26/15 Q1017
Conditions at: YBCG (COOLANGATTA AWS , AU) observed 0709 UTC 15 February 2019
Temperature: 26.0°C (79°F)
Dewpoint: 15.0°C (59°F) [RH = 51%]
Pressure (altimeter): 30.03 inches Hg (1017.0 mb)
Winds: from the S (170 degrees) at 20 MPH (17 knots; 8.7 m/s)
gusting to 31 MPH (27 knots; 13.9 m/s)
Visibility: 6 or more miles (10+ km)
Ceiling: at least 12,000 feet AGL
Clouds: scattered clouds at 6700 feet AGL
Weather: no significant weather observed at this time

METAR text: YBCG 150700Z AUTO 17017KT 9999 // BKN067 26/16 Q1017
Conditions at: YBCG (COOLANGATTA AWS , AU) observed 0700 UTC 15 February 2019
Temperature: 26.0°C (79°F)
Dewpoint: 16.0°C (61°F) [RH = 54%]
Pressure (altimeter): 30.03 inches Hg (1017.0 mb)
Winds: from the S (170 degrees) at 20 MPH (17 knots; 8.7 m/s)
Visibility: 6 or more miles (10+ km)
Ceiling: 6700 feet AGL
Clouds: broken clouds at 6700 feet AGL
Weather: no significant weather observed at this time

METAR text: YBCG 150635Z AUTO 15016G26KT 9999 // SCT043 BKN067 26/15 Q1017
Conditions at: YBCG (COOLANGATTA AWS , AU) observed 0635 UTC 15 February 2019
Temperature: 26.0°C (79°F)
Dewpoint: 15.0°C (59°F) [RH = 51%]
Pressure (altimeter): 30.03 inches Hg (1017.0 mb)
Winds: from the SSE (150 degrees) at 18 MPH (16 knots; 8.2 m/s)
gusting to 30 MPH (26 knots; 13.4 m/s)
Visibility: 6 or more miles (10+ km)
Ceiling: 6700 feet AGL
Clouds: scattered clouds at 4300 feet AGL
broken clouds at 6700 feet AGL
Weather: no significant weather observed at this time

METAR text: YBCG 150600Z AUTO 16019G29KT 9999 // SCT044 BKN053 BKN062 27/16 Q1017
Conditions at: YBCG (COOLANGATTA AWS , AU) observed 0600 UTC 15 February 2019
Temperature: 27.0°C (81°F)
Dewpoint: 16.0°C (61°F) [RH = 51%]
Pressure (altimeter): 30.03 inches Hg (1017.0 mb)
Winds: from the SSE (160 degrees) at 22 MPH (19 knots; 9.8 m/s)
gusting to 33 MPH (29 knots; 14.9 m/s)
Visibility: 6 or more miles (10+ km)
Ceiling: 5300 feet AGL
Clouds: scattered clouds at 4400 feet AGL
broken clouds at 5300 feet AGL
broken clouds at 6200 feet AGL
Weather: no significant weather observed at this time

METAR text: YBCG 150555Z AUTO 16019G29KT 9999 // SCT044 BKN053 BKN060 26/16 Q1017
Conditions at: YBCG (COOLANGATTA AWS , AU) observed 0555 UTC 15 February 2019
Temperature: 26.0°C (79°F)
Dewpoint: 16.0°C (61°F) [RH = 54%]
Pressure (altimeter): 30.03 inches Hg (1017.0 mb)
Winds: from the SSE (160 degrees) at 22 MPH (19 knots; 9.8 m/s)
gusting to 33 MPH (29 knots; 14.9 m/s)
Visibility: 6 or more miles (10+ km)
Ceiling: 5300 feet AGL
Clouds: scattered clouds at 4400 feet AGL
broken clouds at 5300 feet AGL
broken clouds at 6000 feet AGL
Weather: no significant weather observed at this time

METAR text: YBCG 150530Z AUTO 16019KT 9999 // BKN040 27/16 Q1017 RF00.0/000.0
Conditions at: YBCG (COOLANGATTA AWS , AU) observed 0530 UTC 15 February 2019
Temperature: 27.0°C (81°F)
Dewpoint: 16.0°C (61°F) [RH = 51%]
Pressure (altimeter): 30.03 inches Hg (1017.0 mb)
Winds: from the SSE (160 degrees) at 22 MPH (19 knots; 9.8 m/s)
Visibility: 6 or more miles (10+ km)
Ceiling: 4000 feet AGL
Clouds: broken clouds at 4000 feet AGL
Weather: no significant weather observed at this time

METAR text: YBCG 150507Z AUTO 15018G28KT 9999 // SCT038 SCT045 28/17 Q1017
Conditions at: YBCG (COOLANGATTA AWS , AU) observed 0507 UTC 15 February 2019
Temperature: 28.0°C (82°F)
Dewpoint: 17.0°C (63°F) [RH = 51%]
Pressure (altimeter): 30.03 inches Hg (1017.0 mb)
Winds: from the SSE (150 degrees) at 21 MPH (18 knots; 9.3 m/s)
gusting to 32 MPH (28 knots; 14.4 m/s)
Visibility: 6 or more miles (10+ km)
Ceiling: at least 12,000 feet AGL
Clouds: scattered clouds at 3800 feet AGL
scattered clouds at 4500 feet AGL
Weather: no significant weather observed at this time

METAR text: YBCG 150500Z AUTO 16019KT 9999 // SCT038 SCT047 28/17 Q1017
Conditions at: YBCG (COOLANGATTA AWS , AU) observed 0500 UTC 15 February 2019
Temperature: 28.0°C (82°F)
Dewpoint: 17.0°C (63°F) [RH = 51%]
Pressure (altimeter): 30.03 inches Hg (1017.0 mb)
Winds: from the SSE (160 degrees) at 22 MPH (19 knots; 9.8 m/s)
Visibility: 6 or more miles (10+ km)
Ceiling: at least 12,000 feet AGL
Clouds: scattered clouds at 3800 feet AGL
scattered clouds at 4700 feet AGL
Weather: no significant weather observed at this time

METAR text: YBCG 150430Z AUTO 16020KT 9999 // SCT038 27/18 Q1017 RF00.0/000.0
Conditions at: YBCG (COOLANGATTA AWS , AU) observed 0430 UTC 15 February 2019
Temperature: 27.0°C (81°F)
Dewpoint: 18.0°C (64°F) [RH = 58%]
Pressure (altimeter): 30.03 inches Hg (1017.0 mb)
Winds: from the SSE (160 degrees) at 23 MPH (20 knots; 10.3 m/s)
Visibility: 6 or more miles (10+ km)
Ceiling: at least 12,000 feet AGL
Clouds: scattered clouds at 3800 feet AGL
Weather: no significant weather observed at this time

METAR text: YBCG 150400Z AUTO 15019KT 9999 // SCT033 SCT039 SCT047 28/18 Q1017
Conditions at: YBCG (COOLANGATTA AWS , AU) observed 0400 UTC 15 February 2019
Temperature: 28.0°C (82°F)
Dewpoint: 18.0°C (64°F) [RH = 55%]
Pressure (altimeter): 30.03 inches Hg (1017.0 mb)
Winds: from the SSE (150 degrees) at 22 MPH (19 knots; 9.8 m/s)
Visibility: 6 or more miles (10+ km)
Ceiling: at least 12,000 feet AGL
Clouds: scattered clouds at 3300 feet AGL
scattered clouds at 3900 feet AGL
scattered clouds at 4700 feet AGL
Weather: no significant weather observed at this time

METAR text: YBCG 150330Z AUTO 15020KT 9999 // SCT035 28/18 Q1018 RF00.0/000.0
Conditions at: YBCG (COOLANGATTA AWS , AU) observed 0330 UTC 15 February 2019
Temperature: 28.0°C (82°F)
Dewpoint: 18.0°C (64°F) [RH = 55%]
Pressure (altimeter): 30.06 inches Hg (1018.0 mb)
Winds: from the SSE (150 degrees) at 23 MPH (20 knots; 10.3 m/s)
Visibility: 6 or more miles (10+ km)
Ceiling: at least 12,000 feet AGL
Clouds: scattered clouds at 3500 feet AGL
Weather: no significant weather observed at this time

METAR text: YBCG 150308Z AUTO 15019G30KT 9999 // SCT036 28/18 Q1018
Conditions at: YBCG (COOLANGATTA AWS , AU) observed 0308 UTC 15 February 2019
Temperature: 28.0°C (82°F)
Dewpoint: 18.0°C (64°F) [RH = 55%]
Pressure (altimeter): 30.06 inches Hg (1018.0 mb)
Winds: from the SSE (150 degrees) at 22 MPH (19 knots; 9.8 m/s)
gusting to 34 MPH (30 knots; 15.4 m/s)
Visibility: 6 or more miles (10+ km)
Ceiling: at least 12,000 feet AGL
Clouds: scattered clouds at 3600 feet AGL
Weather: no significant weather observed at this time

METAR text: YBCG 150300Z AUTO 15021KT 9999 // NCD 28/18 Q1018
Conditions at: YBCG (COOLANGATTA AWS , AU) observed 0300 UTC 15 February 2019
Temperature: 28.0°C (82°F)
Dewpoint: 18.0°C (64°F) [RH = 55%]
Pressure (altimeter): 30.06 inches Hg (1018.0 mb)
Winds: from the SSE (150 degrees) at 24 MPH (21 knots; 10.8 m/s)
Visibility: 6 or more miles (10+ km)
Ceiling: at least 12,000 feet AGL
Clouds: sky clear below 12,000 feet AGL
Weather: no significant weather observed at this time

METAR text: YBCG 150230Z AUTO 16020KT 9999 // SCT041 28/17 Q1018 RF00.0/000.0
Conditions at: YBCG (COOLANGATTA AWS , AU) observed 0230 UTC 15 February 2019
Temperature: 28.0°C (82°F)
Dewpoint: 17.0°C (63°F) [RH = 51%]
Pressure (altimeter): 30.06 inches Hg (1018.0 mb)
Winds: from the SSE (160 degrees) at 23 MPH (20 knots; 10.3 m/s)
Visibility: 6 or more miles (10+ km)
Ceiling: at least 12,000 feet AGL
Clouds: scattered clouds at 4100 feet AGL
Weather: no significant weather observed at this time

METAR text: YBCG 150200Z AUTO 15019G29KT 9999 // SCT049 SCT057 28/17 Q1018
Conditions at: YBCG (COOLANGATTA AWS , AU) observed 0200 UTC 15 February 2019
Temperature: 28.0°C (82°F)
Dewpoint: 17.0°C (63°F) [RH = 51%]
Pressure (altimeter): 30.06 inches Hg (1018.0 mb)
Winds: from the SSE (150 degrees) at 22 MPH (19 knots; 9.8 m/s)
gusting to 33 MPH (29 knots; 14.9 m/s)
Visibility: 6 or more miles (10+ km)
Ceiling: at least 12,000 feet AGL
Clouds: scattered clouds at 4900 feet AGL
scattered clouds at 5700 feet AGL
Weather: no significant weather observed at this time

METAR text: YBCG 150132Z AUTO 17017G27KT 9999 // SCT040 BKN051 28/17 Q1018
Conditions at: YBCG (COOLANGATTA AWS , AU) observed 0132 UTC 15 February 2019
Temperature: 28.0°C (82°F)
Dewpoint: 17.0°C (63°F) [RH = 51%]
Pressure (altimeter): 30.06 inches Hg (1018.0 mb)
Winds: from the S (170 degrees) at 20 MPH (17 knots; 8.7 m/s)
gusting to 31 MPH (27 knots; 13.9 m/s)
Visibility: 6 or more miles (10+ km)
Ceiling: 5100 feet AGL
Clouds: scattered clouds at 4000 feet AGL
broken clouds at 5100 feet AGL
Weather: no significant weather observed at this time

METAR text: YBCG 150100Z AUTO 17017KT 9999 // SCT038 28/17 Q1019 RF00.0/000.0
Conditions at: YBCG (COOLANGATTA AWS , AU) observed 0100 UTC 15 February 2019
Temperature: 28.0°C (82°F)
Dewpoint: 17.0°C (63°F) [RH = 51%]
Pressure (altimeter): 30.09 inches Hg (1019.0 mb)
Winds: from the S (170 degrees) at 20 MPH (17 knots; 8.7 m/s)
Visibility: 6 or more miles (10+ km)
Ceiling: at least 12,000 feet AGL
Clouds: scattered clouds at 3800 feet AGL
Weather: no significant weather observed at this time

METAR text: YBCG 150043Z AUTO 18017G27KT 9999 // SCT038 27/16 Q1019 RF00.0/000.0
Conditions at: YBCG (COOLANGATTA AWS , AU) observed 0043 UTC 15 February 2019
Temperature: 27.0°C (81°F)
Dewpoint: 16.0°C (61°F) [RH = 51%]
Pressure (altimeter): 30.09 inches Hg (1019.0 mb)
Winds: from the S (180 degrees) at 20 MPH (17 knots; 8.7 m/s)
gusting to 31 MPH (27 knots; 13.9 m/s)
Visibility: 6 or more miles (10+ km)
Ceiling: at least 12,000 feet AGL
Clouds: scattered clouds at 3800 feet AGL
Weather: no significant weather observed at this time

METAR text: YBCG 150030Z AUTO 17014KT 9999 // SCT038 28/17 Q1019 RF00.0/000.0
Conditions at: YBCG (COOLANGATTA AWS , AU) observed 0030 UTC 15 February 2019
Temperature: 28.0°C (82°F)
Dewpoint: 17.0°C (63°F) [RH = 51%]
Pressure (altimeter): 30.09 inches Hg (1019.0 mb)
Winds: from the S (170 degrees) at 16 MPH (14 knots; 7.2 m/s)
Visibility: 6 or more miles (10+ km)
Ceiling: at least 12,000 feet AGL
Clouds: scattered clouds at 3800 feet AGL
Weather: no significant weather observed at this time

METAR text: YBCG 150000Z AUTO 17019KT 9999 // NCD 26/17 Q1019 RF00.0/000.0
Conditions at: YBCG (COOLANGATTA AWS , AU) observed 0000 UTC 15 February 2019
Temperature: 26.0°C (79°F)
Dewpoint: 17.0°C (63°F) [RH = 58%]
Pressure (altimeter): 30.09 inches Hg (1019.0 mb)
Winds: from the S (170 degrees) at 22 MPH (19 knots; 9.8 m/s)
Visibility: 6 or more miles (10+ km)
Ceiling: at least 12,000 feet AGL
Clouds: sky clear below 12,000 feet AGL
Weather: no significant weather observed at this time

METAR text: YBCG 142330Z AUTO 19019KT 9999 // NCD 26/17 Q1019 RF00.0/000.0
Conditions at: YBCG (COOLANGATTA AWS , AU) observed 2330 UTC 14 February 2019
Temperature: 26.0°C (79°F)
Dewpoint: 17.0°C (63°F) [RH = 58%]
Pressure (altimeter): 30.09 inches Hg (1019.0 mb)
Winds: from the S (190 degrees) at 22 MPH (19 knots; 9.8 m/s)
Visibility: 6 or more miles (10+ km)
Ceiling: at least 12,000 feet AGL
Clouds: sky clear below 12,000 feet AGL
Weather: no significant weather observed at this time

METAR text: YBCG 142300Z AUTO 18017KT 9999 // NCD 27/17 Q1019 RF00.0/001.2
Conditions at: YBCG (COOLANGATTA AWS , AU) observed 2300 UTC 14 February 2019
Temperature: 27.0°C (81°F)
Dewpoint: 17.0°C (63°F) [RH = 54%]
Pressure (altimeter): 30.09 inches Hg (1019.0 mb)
Winds: from the S (180 degrees) at 20 MPH (17 knots; 8.7 m/s)
Visibility: 6 or more miles (10+ km)
Ceiling: at least 12,000 feet AGL
Clouds: sky clear below 12,000 feet AGL
Weather: no significant weather observed at this time

METAR text: YBCG 142230Z AUTO 18016KT 9999 // NCD 26/17 Q1019 RF00.0/001.2
Conditions at: YBCG (COOLANGATTA AWS , AU) observed 2230 UTC 14 February 2019
Temperature: 26.0°C (79°F)
Dewpoint: 17.0°C (63°F) [RH = 58%]
Pressure (altimeter): 30.09 inches Hg (1019.0 mb)
Winds: from the S (180 degrees) at 18 MPH (16 knots; 8.2 m/s)
Visibility: 6 or more miles (10+ km)
Ceiling: at least 12,000 feet AGL
Clouds: sky clear below 12,000 feet AGL
Weather: no significant weather observed at this time

METAR text: YBCG 142200Z AUTO 19014KT 9999 // NCD 25/16 Q1019 RF00.0/001.2
Conditions at: YBCG (COOLANGATTA AWS , AU) observed 2200 UTC 14 February 2019
Temperature: 25.0°C (77°F)
Dewpoint: 16.0°C (61°F) [RH = 57%]
Pressure (altimeter): 30.09 inches Hg (1019.0 mb)
Winds: from the S (190 degrees) at 16 MPH (14 knots; 7.2 m/s)
Visibility: 6 or more miles (10+ km)
Ceiling: at least 12,000 feet AGL
Clouds: sky clear below 12,000 feet AGL
Weather: no significant weather observed at this time

METAR text: YBCG 142130Z AUTO 19014KT 9999 // SCT056 25/17 Q1019 RF00.0/001.2
Conditions at: YBCG (COOLANGATTA AWS , AU) observed 2130 UTC 14 February 2019
Temperature: 25.0°C (77°F)
Dewpoint: 17.0°C (63°F) [RH = 61%]
Pressure (altimeter): 30.09 inches Hg (1019.0 mb)
Winds: from the S (190 degrees) at 16 MPH (14 knots; 7.2 m/s)
Visibility: 6 or more miles (10+ km)
Ceiling: at least 12,000 feet AGL
Clouds: scattered clouds at 5600 feet AGL
Weather: no significant weather observed at this time

METAR text: YBCG 142100Z AUTO 19012KT 9999 // BKN044 OVC051 24/17 Q1018
Conditions at: YBCG (COOLANGATTA AWS , AU) observed 2100 UTC 14 February 2019
Temperature: 24.0°C (75°F)
Dewpoint: 17.0°C (63°F) [RH = 65%]
Pressure (altimeter): 30.06 inches Hg (1018.0 mb)
Winds: from the S (190 degrees) at 14 MPH (12 knots; 6.2 m/s)
Visibility: 6 or more miles (10+ km)
Ceiling: 4400 feet AGL
Clouds: broken clouds at 4400 feet AGL
overcast cloud deck at 5100 feet AGL
Weather: no significant weather observed at this time

METAR text: YBCG 142030Z AUTO 19011KT 9999 // SCT037 BKN042 OVC055 23/17 Q1018
Conditions at: YBCG (COOLANGATTA AWS , AU) observed 2030 UTC 14 February 2019
Temperature: 23.0°C (73°F)
Dewpoint: 17.0°C (63°F) [RH = 69%]
Pressure (altimeter): 30.06 inches Hg (1018.0 mb)
Winds: from the S (190 degrees) at 13 MPH (11 knots; 5.7 m/s)
Visibility: 6 or more miles (10+ km)
Ceiling: 4200 feet AGL
Clouds: scattered clouds at 3700 feet AGL
broken clouds at 4200 feet AGL
overcast cloud deck at 5500 feet AGL
Weather: no significant weather observed at this time

METAR text: YBCG 142000Z AUTO 19011KT 9999 // BKN055 23/17 Q1018 RF00.0/001.2
Conditions at: YBCG (COOLANGATTA AWS , AU) observed 2000 UTC 14 February 2019
Temperature: 23.0°C (73°F)
Dewpoint: 17.0°C (63°F) [RH = 69%]
Pressure (altimeter): 30.06 inches Hg (1018.0 mb)
Winds: from the S (190 degrees) at 13 MPH (11 knots; 5.7 m/s)
Visibility: 6 or more miles (10+ km)
Ceiling: 5500 feet AGL
Clouds: broken clouds at 5500 feet AGL
Weather: no significant weather observed at this time

METAR text: YBCG 141930Z AUTO 19010KT 9999 // SCT057 22/17 Q1018 RF00.0/001.2
Conditions at: YBCG (COOLANGATTA AWS , AU) observed 1930 UTC 14 February 2019
Temperature: 22.0°C (72°F)
Dewpoint: 17.0°C (63°F) [RH = 73%]
Pressure (altimeter): 30.06 inches Hg (1018.0 mb)
Winds: from the S (190 degrees) at 12 MPH (10 knots; 5.1 m/s)
Visibility: 6 or more miles (10+ km)
Ceiling: at least 12,000 feet AGL
Clouds: scattered clouds at 5700 feet AGL
Weather: no significant weather observed at this time

METAR text: YBCG 141900Z AUTO 18011KT 9999 // NCD 23/17 Q1017 RF00.0/001.2
Conditions at: YBCG (COOLANGATTA AWS , AU) observed 1900 UTC 14 February 2019
Temperature: 23.0°C (73°F)
Dewpoint: 17.0°C (63°F) [RH = 69%]
Pressure (altimeter): 30.03 inches Hg (1017.0 mb)
Winds: from the S (180 degrees) at 13 MPH (11 knots; 5.7 m/s)
Visibility: 6 or more miles (10+ km)
Ceiling: at least 12,000 feet AGL
Clouds: sky clear below 12,000 feet AGL
Weather: no significant weather observed at this time

METAR text: YBCG 141830Z AUTO 18012KT 9999 // NCD 23/17 Q1017 RF00.0/001.2
Conditions at: YBCG (COOLANGATTA AWS , AU) observed 1830 UTC 14 February 2019
Temperature: 23.0°C (73°F)
Dewpoint: 17.0°C (63°F) [RH = 69%]
Pressure (altimeter): 30.03 inches Hg (1017.0 mb)
Winds: from the S (180 degrees) at 14 MPH (12 knots; 6.2 m/s)
Visibility: 6 or more miles (10+ km)
Ceiling: at least 12,000 feet AGL
Clouds: sky clear below 12,000 feet AGL
Weather: no significant weather observed at this time

Forecast for: YBCG (COOLANGATTA AWS , AU)
Text: TAF YBCG 160512Z 1606/1706 15018KT 9999 -SHRA SCT035
Forecast period: 0600 to 0800 UTC 16 February 2019
Forecast type: FROM: standard forecast or significant change
Winds: from the SSE (150 degrees) at 21 MPH (18 knots; 9.3 m/s)
Visibility: 6 or more miles 10+ km)
Ceiling: at least 12,000 feet AGL
Clouds: scattered clouds at 3500 feet AGL
Weather: -SHRA  (light rain showers)
Text: FM160800 16012KT 9999 -SHRA SCT035
Forecast period: 0800 to 1200 UTC 16 February 2019
Forecast type: FROM: standard forecast or significant change
Winds: from the SSE (160 degrees) at 14 MPH (12 knots; 6.2 m/s)
Visibility: 6 or more miles 10+ km)
Ceiling: at least 12,000 feet AGL
Clouds: scattered clouds at 3500 feet AGL
Weather: -SHRA  (light rain showers)
Text: FM161200 20008KT 9999 -SHRA SCT030
Forecast period: 1200 UTC 16 February 2019 to 0000 UTC 17 February 2019
Forecast type: FROM: standard forecast or significant change
Winds: from the SSW (200 degrees) at 9 MPH (8 knots; 4.1 m/s)
Visibility: 6 or more miles 10+ km)
Ceiling: at least 12,000 feet AGL
Clouds: scattered clouds at 3000 feet AGL
Weather: -SHRA  (light rain showers)
Text: FM170000 13014KT 9999 SCT045
Forecast period: 0000 to 0600 UTC 17 February 2019
Forecast type: FROM: standard forecast or significant change
Winds: from the SE (130 degrees) at 16 MPH (14 knots; 7.2 m/s)
Visibility: 6 or more miles 10+ km)
Ceiling: at least 12,000 feet AGL
Clouds: scattered clouds at 4500 feet AGL
Weather: no significant weather forecast for this period